.
WxDataArchive / Data Records for 2010-06-04
2010-06-03 June 2010 2010-06-05

Data Records for Friday, 04 June 2010

Time	Temp	Chill	HIndex	Humid	Dewpt	 Wind 	HiWind	WindDir	Rain 	Barom 
-----	----	-----	------	-----	-----	------	------	-------	-----	----- 
00:00	65.3	65.3	65.3	88	61.6	1	3	338	0.00	29.819 
00:05	66.0	66.0	66.0	84	61.0	0	1	338	0.00	29.819 
00:10	66.3	66.3	66.3	83	61.0	0	2	338	0.00	29.819 
00:15	66.4	66.4	66.4	82	60.7	0	0	---	0.00	29.810 
00:20	66.3	66.3	66.3	81	60.3	0	1	338	0.00	29.810 
00:25	66.1	66.1	66.1	82	60.4	0	0	---	0.00	29.810 
00:30	66.0	66.0	66.0	82	60.3	0	1	338	0.00	29.812 
00:35	65.8	65.8	65.8	82	60.1	0	1	338	0.00	29.812 
00:40	65.8	65.8	65.8	82	60.1	0	1	338	0.00	29.812 
00:45	65.6	65.6	65.6	83	60.3	0	0	---	0.00	29.816 
00:50	65.3	65.3	65.3	83	60.0	0	0	---	0.00	29.816 
00:55	65.2	65.2	65.2	83	59.9	0	0	---	0.00	29.816 
01:00	65.0	65.0	65.0	84	60.0	0	0	---	0.00	29.815 
01:05	64.8	64.8	64.8	84	59.8	0	1	338	0.00	29.815 
01:10	64.7	64.7	64.7	83	59.4	0	1	338	0.00	29.815 
01:15	64.5	64.5	64.5	83	59.2	0	1	338	0.00	29.817 
01:20	64.3	64.3	64.3	83	59.0	0	1	338	0.00	29.817 
01:25	64.2	64.2	64.2	83	58.9	0	0	---	0.00	29.817 
01:30	64.0	64.0	64.0	84	59.1	0	0	---	0.00	29.822 
01:35	63.9	63.9	63.9	83	58.6	0	0	---	0.00	29.822 
01:40	63.7	63.7	63.7	83	58.4	0	0	---	0.00	29.822 
01:45	63.7	63.7	63.7	84	58.8	0	0	---	0.00	29.816 
01:50	63.4	63.4	63.4	83	58.1	0	0	---	0.00	29.816 
01:55	63.2	63.2	63.2	83	57.9	0	0	---	0.00	29.816 
02:00	63.1	63.1	63.1	83	57.8	0	0	---	0.00	29.822 
02:05	62.9	62.9	62.9	83	57.7	0	0	---	0.00	29.822 
02:10	62.7	62.7	62.7	83	57.5	0	0	---	0.00	29.822 
02:15	62.4	62.4	62.4	83	57.2	0	0	---	0.00	29.816 
02:20	62.3	62.3	62.3	83	57.1	0	0	---	0.00	29.816 
02:25	62.1	62.1	62.1	83	56.9	0	0	---	0.00	29.816 
02:30	61.8	61.8	61.8	83	56.6	0	0	---	0.00	29.813 
02:35	61.6	61.6	61.6	84	56.7	0	0	---	0.00	29.813 
02:40	61.5	61.5	61.5	84	56.6	0	0	---	0.00	29.813 
02:45	61.3	61.3	61.3	84	56.4	0	0	---	0.00	29.820 
02:50	61.2	61.2	61.2	85	56.6	0	0	---	0.00	29.820 
02:55	61.0	61.0	61.0	85	56.5	0	0	---	0.00	29.820 
03:00	60.9	60.9	60.9	85	56.4	0	0	---	0.00	29.817 
03:05	60.7	60.7	60.7	86	56.5	0	0	---	0.00	29.817 
03:10	60.5	60.5	60.5	87	56.6	0	0	---	0.00	29.817 
03:15	60.5	60.5	60.5	88	56.9	0	0	---	0.00	29.826 
03:20	60.4	60.4	60.4	88	56.8	0	0	---	0.00	29.826 
03:25	60.2	60.2	60.2	88	56.6	0	0	---	0.00	29.826 
03:30	60.2	60.2	60.2	88	56.6	0	0	---	0.00	29.817 
03:35	60.2	60.2	60.2	88	56.6	0	0	---	0.00	29.817 
03:40	60.2	60.2	60.2	89	56.9	0	0	---	0.00	29.817 
03:45	60.2	60.2	60.2	89	56.9	0	0	---	0.00	29.816 
03:50	60.1	60.1	60.1	89	56.8	0	0	---	0.00	29.816 
03:55	60.2	60.2	60.2	90	57.3	0	0	---	0.00	29.816 
04:00	60.1	60.1	60.1	90	57.2	0	0	---	0.00	29.812 
04:05	60.1	60.1	60.1	90	57.2	0	0	---	0.00	29.812 
04:10	59.9	59.9	59.9	90	57.0	0	0	---	0.00	29.812 
04:15	59.9	59.9	59.9	90	57.0	0	0	---	0.00	29.805 
04:20	59.8	59.8	59.8	90	56.9	0	0	---	0.00	29.805 
04:25	59.6	59.6	59.6	90	56.7	0	0	---	0.00	29.805 
04:30	59.6	59.6	59.6	91	57.0	0	0	---	0.00	29.806 
04:35	59.5	59.5	59.5	91	56.9	0	0	---	0.00	29.806 
04:40	59.3	59.3	59.3	91	56.7	0	0	---	0.00	29.806 
04:45	59.2	59.2	59.2	91	56.6	0	0	---	0.00	29.805 
04:50	59.2	59.2	59.2	91	56.6	0	0	---	0.00	29.805 
04:55	59.0	59.0	59.0	91	56.4	0	0	---	0.00	29.805 
05:00	59.0	59.0	59.0	92	56.7	0	0	---	0.00	29.802 
05:05	59.0	59.0	59.0	92	56.7	0	0	---	0.00	29.802 
05:10	59.0	59.0	59.0	92	56.7	0	0	---	0.00	29.802 
05:15	59.0	59.0	59.0	92	56.7	0	0	---	0.00	29.807 
05:20	58.9	58.9	58.9	92	56.6	0	0	---	0.00	29.807 
05:25	58.9	58.9	58.9	92	56.6	0	0	---	0.00	29.807 
05:30	58.7	58.7	58.7	92	56.4	0	0	---	0.00	29.809 
05:35	58.7	58.7	58.7	92	56.4	0	0	---	0.00	29.809 
05:40	58.6	58.6	58.6	92	56.3	0	0	---	0.00	29.809 
05:45	58.4	58.4	58.4	92	56.1	0	0	---	0.00	29.807 
05:50	58.4	58.4	58.4	92	56.1	0	0	---	0.00	29.807 
05:55	58.3	58.3	58.3	92	56.0	0	0	---	0.00	29.807 
06:00	58.3	58.3	58.3	92	56.0	0	0	---	0.00	29.814 
06:05	58.1	58.1	58.1	92	55.8	0	0	---	0.00	29.814 
06:10	58.1	58.1	58.1	92	55.8	0	0	---	0.00	29.814 
06:15	58.1	58.1	58.1	93	56.1	0	0	---	0.00	29.813 
06:20	58.1	58.1	58.1	93	56.1	0	0	---	0.00	29.813 
06:25	58.0	58.0	58.0	93	56.0	0	0	---	0.00	29.813 
06:30	58.0	58.0	58.0	93	56.0	0	0	---	0.00	29.817 
06:35	58.1	58.1	58.1	93	56.1	0	0	---	0.00	29.817 
06:40	58.1	58.1	58.1	93	56.1	0	0	---	0.00	29.817 
06:45	58.1	58.1	58.1	93	56.1	0	0	---	0.00	29.818 
06:50	58.3	58.3	58.3	93	56.3	0	0	---	0.00	29.818 
06:55	58.4	58.4	58.4	93	56.4	0	0	---	0.00	29.818 
07:00	58.7	58.7	58.7	94	57.0	0	0	---	0.00	29.819 
07:05	59.0	59.0	59.0	94	57.3	0	0	---	0.00	29.819 
07:10	59.2	59.2	59.2	94	57.5	0	0	---	0.00	29.819 
07:15	59.5	59.5	59.5	94	57.8	0	0	---	0.00	29.825 
07:20	59.9	59.9	59.9	94	58.2	0	0	---	0.00	29.825 
07:25	60.4	60.4	60.4	93	58.4	0	0	---	0.00	29.825 
07:30	60.7	60.7	60.7	92	58.4	0	1	338	0.00	29.825 
07:35	61.3	61.3	61.3	92	59.0	0	0	---	0.00	29.825 
07:40	61.6	61.6	61.6	91	58.9	0	0	---	0.00	29.825 
07:45	62.1	62.1	62.1	90	59.1	0	2	338	0.00	29.830 
07:50	62.9	62.9	62.9	88	59.3	0	1	338	0.00	29.830 
07:55	63.5	63.5	63.5	86	59.2	0	1	338	0.00	29.830 
08:00	64.2	64.2	64.2	85	59.6	1	3	338	0.00	29.827 
08:05	64.7	64.7	64.7	84	59.7	0	2	0	0.00	29.827 
08:10	65.2	65.2	65.2	84	60.2	0	3	0	0.00	29.827 
08:15	65.6	65.6	65.6	82	59.9	0	3	0	0.00	29.828 
08:20	66.0	66.0	66.0	82	60.3	0	1	0	0.00	29.828 
08:25	66.3	66.3	66.3	83	61.0	0	0	---	0.00	29.828 
08:30	66.8	66.8	66.8	81	60.8	0	2	0	0.00	29.829 
08:35	66.9	66.9	66.9	81	60.9	0	1	0	0.00	29.829 
08:40	67.4	67.4	67.4	81	61.4	0	1	0	0.00	29.829 
08:45	67.9	67.9	67.9	80	61.5	0	1	0	0.00	29.826 
08:50	68.4	68.4	68.4	79	61.6	0	1	0	0.00	29.826 
08:55	68.9	68.9	68.9	78	61.7	1	3	0	0.00	29.826 
09:00	69.4	69.4	69.4	79	62.6	0	2	0	0.00	29.827 
09:05	69.8	69.8	69.8	78	62.6	0	1	0	0.00	29.827 
09:10	70.3	70.3	70.3	77	62.7	0	3	0	0.00	29.827 
09:15	70.3	70.3	70.3	77	62.7	0	1	0	0.00	29.831 
09:20	70.3	70.3	70.3	77	62.7	0	1	0	0.00	29.831 
09:25	70.4	70.4	70.4	77	62.8	0	1	0	0.00	29.831 
09:30	70.8	70.8	70.8	78	63.6	0	1	0	0.00	29.832 
09:35	71.1	71.1	71.1	77	63.5	0	1	0	0.00	29.832 
09:40	71.5	71.5	71.5	77	63.9	0	1	0	0.00	29.832 
09:45	72.0	72.0	72.0	76	64.0	0	2	0	0.00	29.830 
09:50	72.5	72.5	72.5	72	62.9	0	2	0	0.00	29.830 
09:55	73.0	73.0	73.0	72	63.4	0	2	0	0.00	29.830 
10:00	73.5	73.5	73.5	71	63.5	0	3	22	0.00	29.828 
10:05	74.0	74.0	74.0	70	63.6	0	1	22	0.00	29.828 
10:10	74.4	74.4	74.4	70	64.0	0	2	68	0.00	29.828 
10:15	74.6	74.6	74.6	69	63.7	0	3	90	0.00	29.828 
10:20	74.6	74.6	74.6	72	65.0	0	1	90	0.00	29.828 
10:25	74.4	74.4	74.4	70	64.0	0	1	90	0.00	29.828 
10:30	74.6	74.6	74.6	71	64.6	0	1	90	0.00	29.828 
10:35	74.7	74.7	74.7	71	64.7	0	2	90	0.00	29.828 
10:40	74.7	74.7	74.7	69	63.8	0	2	90	0.00	29.828 
10:45	75.1	75.1	76.9	69	64.2	0	2	90	0.00	29.829 
10:50	75.6	75.6	77.4	68	64.3	0	1	90	0.00	29.829 
10:55	76.1	76.1	77.8	68	64.8	0	2	90	0.00	29.829 
11:00	76.5	76.5	78.3	67	64.7	1	3	90	0.00	29.814 
11:05	76.5	76.5	78.3	66	64.3	0	0	---	0.00	29.814 
11:10	76.5	76.5	78.3	68	65.1	0	0	---	0.00	29.814 
11:15	77.2	77.2	79.0	66	64.9	0	3	22	0.00	29.808 
11:20	77.7	77.7	79.5	63	64.1	0	1	22	0.00	29.808 
11:25	78.1	78.1	80.0	66	65.8	0	2	22	0.00	29.808 
11:30	78.1	78.1	80.0	65	65.4	0	2	22	0.00	29.807 
11:35	78.5	78.5	80.3	63	64.8	0	2	22	0.00	29.807 
11:40	78.6	78.6	80.4	63	64.9	1	3	22	0.00	29.807 
11:45	78.6	78.6	80.4	63	64.9	1	2	22	0.00	29.800 
11:50	79.0	79.0	80.8	62	64.8	1	4	68	0.00	29.800 
11:55	79.2	79.2	81.1	62	65.0	1	4	90	0.00	29.800 
12:00	79.0	79.0	80.8	62	64.8	1	4	90	0.00	29.793 
12:05	78.8	78.8	80.7	63	65.1	1	3	90	0.00	29.793 
12:10	78.8	78.8	80.7	64	65.6	1	3	270	0.00	29.793 
12:15	79.2	79.2	81.3	65	66.4	0	2	270	0.00	29.792 
12:20	79.6	79.6	81.8	65	66.8	1	4	270	0.00	29.792 
12:25	79.8	79.8	81.9	63	66.1	1	3	292	0.00	29.792 
12:30	79.8	79.8	81.9	63	66.1	1	5	315	0.00	29.788 
12:35	79.9	79.9	82.1	64	66.6	1	2	292	0.00	29.788 
12:40	80.3	80.3	82.4	62	66.1	1	3	90	0.00	29.788 
12:45	80.3	80.3	82.2	60	65.1	1	3	90	0.00	29.789 
12:50	80.3	80.3	82.3	61	65.6	1	3	90	0.00	29.789 
12:55	79.9	79.9	81.8	61	65.2	0	2	292	0.00	29.789 
13:00	80.1	80.1	82.2	62	65.9	1	3	202	0.00	29.778 
13:05	80.3	80.3	82.7	64	67.0	1	3	248	0.00	29.778 
13:10	80.7	80.7	82.7	60	65.5	0	3	248	0.00	29.778 
13:15	81.1	81.1	83.2	60	65.9	1	4	135	0.00	29.765 
13:20	81.1	81.1	83.5	62	66.8	1	3	292	0.00	29.765 
13:25	81.4	81.4	83.9	62	67.1	1	3	0	0.00	29.765 
13:30	82.0	82.0	84.1	58	65.7	2	4	112	0.00	29.762 
13:35	82.6	82.6	84.9	58	66.3	1	3	315	0.00	29.762 
13:40	82.6	82.6	84.7	57	65.8	2	5	270	0.00	29.762 
13:45	82.8	82.8	85.2	58	66.5	1	3	315	0.00	29.747 
13:50	83.0	83.0	84.7	54	64.6	1	4	270	0.00	29.747 
13:55	83.0	83.0	85.1	56	65.7	1	4	248	0.00	29.747 
14:00	83.2	83.2	85.6	57	66.4	2	6	270	0.00	29.746 
14:05	83.4	83.4	85.4	55	65.5	1	4	270	0.00	29.746 
14:10	83.6	83.6	85.7	55	65.7	1	4	248	0.00	29.746 
14:15	83.8	83.8	85.3	52	64.3	2	4	248	0.00	29.744 
14:20	83.4	83.4	85.2	54	65.0	2	5	270	0.00	29.744 
14:25	83.4	83.4	85.0	53	64.4	2	6	270	0.00	29.744 
14:30	83.6	83.6	86.1	57	66.7	1	4	270	0.00	29.730 
14:35	83.8	83.8	85.7	54	65.3	1	5	248	0.00	29.730 
14:40	84.0	84.0	85.1	50	63.3	2	4	270	0.00	29.730 
14:45	83.8	83.8	85.5	53	64.8	1	3	270	0.00	29.730 
14:50	83.8	83.8	85.3	52	64.3	1	4	248	0.00	29.730 
14:55	84.0	84.0	84.7	48	62.2	2	6	248	0.00	29.730 
15:00	84.5	84.5	85.6	49	63.2	2	4	292	0.00	29.729 
15:05	84.9	84.9	85.8	48	63.0	2	6	270	0.00	29.729 
15:10	84.9	84.9	85.2	45	61.2	2	7	248	0.00	29.729 
15:15	84.9	84.9	85.4	46	61.8	3	7	270	0.00	29.728 
15:20	85.1	85.1	86.4	49	63.8	2	4	292	0.00	29.728 
15:25	84.9	84.9	85.4	46	61.8	2	7	292	0.00	29.728 
15:30	84.3	84.3	84.7	46	61.2	2	9	248	0.00	29.716 
15:35	84.7	84.7	85.2	46	61.6	2	4	248	0.00	29.716 
15:40	84.7	84.7	85.0	45	61.0	2	5	270	0.00	29.716 
15:45	85.1	85.1	85.4	45	61.3	2	4	270	0.00	29.706 
15:50	85.1	85.1	85.2	44	60.7	2	5	270	0.00	29.706 
15:55	85.3	85.3	86.1	47	62.8	1	2	270	0.00	29.706 
16:00	85.3	85.3	85.7	45	61.5	2	6	270	0.00	29.703 
16:05	85.5	85.5	87.2	50	64.7	2	4	270	0.00	29.703 
16:10	85.7	85.7	86.2	45	61.9	2	5	270	0.00	29.703 
16:15	85.7	85.7	86.2	45	61.9	2	4	270	0.00	29.699 
16:20	85.5	85.5	85.5	43	60.4	2	4	248	0.00	29.699 
16:25	85.5	85.5	85.5	43	60.4	2	5	270	0.00	29.699 
16:30	85.3	85.3	85.5	44	60.9	1	3	248	0.00	29.699 
16:35	85.3	85.3	85.5	44	60.9	2	4	270	0.00	29.699 
16:40	85.3	85.3	85.5	44	60.9	1	4	248	0.00	29.699 
16:45	84.7	84.7	85.0	45	61.0	1	4	270	0.00	29.700 
16:50	84.7	84.7	85.4	47	62.2	2	4	270	0.00	29.700 
16:55	85.5	85.5	86.4	47	62.9	1	3	248	0.00	29.700 
17:00	85.9	85.9	86.2	44	61.4	2	4	248	0.00	29.697 
17:05	85.7	85.7	85.5	42	59.9	3	6	270	0.00	29.697 
17:10	85.5	85.5	85.5	43	60.4	2	5	248	0.00	29.697 
17:15	84.9	84.9	84.6	42	59.2	2	4	270	0.00	29.697 
17:20	84.7	84.7	85.2	46	61.6	1	5	270	0.00	29.697 
17:25	85.3	85.3	85.5	44	60.9	2	6	270	0.00	29.697 
17:30	85.5	85.5	85.1	41	59.1	2	6	270	0.00	29.698 
17:35	85.5	85.5	85.1	41	59.1	3	7	270	0.00	29.698 
17:40	85.1	85.1	85.0	43	60.1	2	6	248	0.00	29.698 
17:45	84.5	84.5	84.5	44	60.2	1	4	270	0.00	29.703 
17:50	83.8	83.8	83.9	45	60.2	1	4	270	0.00	29.703 
17:55	83.6	83.6	83.7	45	60.0	2	4	248	0.00	29.703 
18:00	83.2	83.2	83.6	47	60.8	1	3	270	0.00	29.701 
18:05	83.0	83.0	83.4	47	60.7	1	3	248	0.00	29.701 
18:10	82.8	82.8	83.3	48	61.1	1	3	248	0.00	29.701 
18:15	82.4	82.4	83.0	49	61.3	1	6	270	0.00	29.700 
18:20	82.4	82.4	82.9	48	60.7	1	4	270	0.00	29.700 
18:25	82.0	82.0	82.6	49	60.9	0	2	270	0.00	29.700 
18:30	81.8	81.8	82.4	49	60.7	2	4	270	0.00	29.700 
18:35	81.6	81.6	82.2	49	60.6	2	5	270	0.00	29.700 
18:40	81.6	81.6	82.3	50	61.1	2	5	270	0.00	29.700 
18:45	81.4	81.4	82.3	51	61.5	1	3	270	0.00	29.697 
18:50	81.2	81.2	82.2	52	61.9	0	2	270	0.00	29.697 
18:55	80.9	80.9	81.9	52	61.6	0	1	270	0.00	29.697 
19:00	80.9	80.9	82.0	53	62.1	1	2	270	0.00	29.696 
19:05	80.7	80.7	81.8	53	62.0	0	2	270	0.00	29.696 
19:10	80.7	80.7	81.8	53	62.0	0	2	270	0.00	29.696 
19:15	80.5	80.5	81.6	53	61.8	1	3	270	0.00	29.693 
19:20	80.5	80.5	81.6	53	61.8	1	3	270	0.00	29.693 
19:25	80.5	80.5	81.6	53	61.8	1	3	270	0.00	29.693 
19:30	80.5	80.5	81.5	52	61.2	1	3	270	0.00	29.692 
19:35	80.7	80.7	81.7	52	61.4	1	3	270	0.00	29.692 
19:40	80.5	80.5	81.6	53	61.8	0	1	270	0.00	29.692 
19:45	80.3	80.3	81.4	53	61.6	1	3	248	0.00	29.692 
19:50	80.1	80.1	81.3	54	61.9	0	2	248	0.00	29.692 
19:55	80.1	80.1	81.3	54	61.9	0	2	248	0.00	29.692 
20:00	80.1	80.1	81.3	54	61.9	0	2	248	0.00	29.698 
20:05	79.9	79.9	81.3	56	62.8	0	2	248	0.00	29.698 
20:10	79.6	79.6	81.3	59	64.0	0	2	248	0.00	29.698 
20:15	79.0	79.0	80.7	60	63.9	0	2	248	0.00	29.691 
20:20	78.6	78.6	80.3	61	64.0	0	1	248	0.00	29.691 
20:25	78.5	78.5	80.2	61	63.9	0	2	248	0.00	29.691 
20:30	78.3	78.3	80.0	61	63.7	0	1	248	0.00	29.693 
20:35	78.1	78.1	79.9	62	64.0	0	1	248	0.00	29.693 
20:40	77.9	77.9	79.7	64	64.7	0	0	---	0.00	29.693 
20:45	77.6	77.6	79.4	66	65.3	0	0	---	0.00	29.698 
20:50	76.8	76.8	78.5	70	66.3	0	0	---	0.01	29.698 
20:55	76.1	76.1	77.6	73	66.8	0	0	---	0.00	29.698 
21:00	75.4	75.4	76.4	77	67.7	0	0	---	0.01	29.711 
21:05	74.9	74.9	74.9	79	67.9	0	0	---	0.00	29.711 
21:10	74.2	74.2	74.2	80	67.6	0	0	---	0.00	29.711 
21:15	73.9	73.9	73.9	79	67.0	0	1	248	0.00	29.697 
21:20	73.7	73.7	73.7	80	67.1	0	0	---	0.00	29.697 
21:25	73.5	73.5	73.5	81	67.3	0	0	---	0.00	29.697 
21:30	73.5	73.5	73.5	81	67.3	0	0	---	0.00	29.708 
21:35	73.5	73.5	73.5	80	66.9	0	1	248	0.00	29.708 
21:40	73.7	73.7	73.7	80	67.1	0	1	248	0.00	29.708 
21:45	73.7	73.7	73.7	80	67.1	0	1	248	0.00	29.712 
21:50	73.7	73.7	73.7	79	66.8	0	1	248	0.00	29.712 
21:55	73.9	73.9	73.9	77	66.2	0	2	248	0.00	29.712 
22:00	74.4	74.4	74.4	75	65.9	1	4	248	0.00	29.716 
22:05	74.6	74.6	74.6	75	66.1	0	2	248	0.00	29.716 
22:10	74.6	74.6	74.6	75	66.1	0	1	248	0.00	29.716 
22:15	74.6	74.6	74.6	70	64.2	2	6	248	0.00	29.711 
22:20	74.9	74.9	74.9	68	63.6	2	7	270	0.00	29.711 
22:25	74.7	74.7	74.7	66	62.6	2	4	248	0.00	29.711 
22:30	74.6	74.6	74.6	67	62.9	1	4	248	0.00	29.722 
22:35	74.4	74.4	74.4	67	62.7	0	2	248	0.00	29.722 
22:40	74.2	74.2	74.2	67	62.5	0	2	248	0.00	29.722 
22:45	74.0	74.0	74.0	68	62.8	0	2	248	0.00	29.724 
22:50	73.9	73.9	73.9	68	62.7	0	2	248	0.00	29.724 
22:55	73.5	73.5	73.5	69	62.7	0	3	248	0.00	29.724 
23:00	73.5	73.5	73.5	69	62.7	1	3	248	0.00	29.723 
23:05	73.3	73.3	73.3	70	62.9	0	1	248	0.00	29.723 
23:10	73.2	73.2	73.2	70	62.8	0	2	248	0.00	29.723 
23:15	72.8	72.8	72.8	76	64.8	0	2	248	0.02	29.720 
23:20	72.0	72.0	72.0	79	65.1	0	1	270	0.00	29.720 
23:25	70.9	70.9	70.9	81	64.8	0	1	270	0.00	29.720 
23:30	70.3	70.3	70.3	83	64.9	0	1	270	0.00	29.720 
23:35	69.8	69.8	69.8	84	64.7	0	0	---	0.00	29.720 
23:40	69.4	69.4	69.4	85	64.7	0	0	---	0.00	29.720 
23:45	69.1	69.1	69.1	86	64.7	0	0	---	0.00	29.716 
23:50	68.9	68.9	68.9	87	64.9	0	0	---	0.00	29.716 
23:55	68.8	68.8	68.8	87	64.8	0	0	---	0.00	29.716 

CoCoRaHS
IN-AL-39
A2 Web Hosting
Creative Commons License
GoDaddy
search engine by freefind advanced

loaded 2018-11-13 21:42:24 • last modified 2010-11-18 10:43:29
Privacy PolicyDisclaimer
• wx.awcolley.com is powered by PmWiki v.2002016 •
• all content (unless otherwise noted) © 2018 A W Colley